createdAt,value
2019-05-22T00:02:36.536Z,87.53
2019-05-22T00:05:12.631Z,91.22
2019-05-22T00:07:43.433Z,86.10
2019-05-22T00:10:14.407Z,87.92
2019-05-22T00:15:16.146Z,89.05
2019-05-22T00:17:44.658Z,90.92
2019-05-22T00:20:13.616Z,93.10
2019-05-22T00:22:44.779Z,90.35
2019-05-22T00:25:17.632Z,95.50
2019-05-22T00:27:48.484Z,91.08
2019-05-22T00:30:17.311Z,92.42
2019-05-22T00:32:46.626Z,91.28
2019-05-22T00:35:15.784Z,97.60
2019-05-22T00:37:43.338Z,100.85
2019-05-22T00:40:11.836Z,92.33
2019-05-22T00:42:42.549Z,102.15
2019-05-22T00:45:12.045Z,88.97
2019-05-22T00:47:40.971Z,89.83
2019-05-22T00:50:11.757Z,99.60
2019-05-22T00:55:22.031Z,86.97
2019-05-22T00:58:23.552Z,76.77
2019-05-22T01:01:13.376Z,75.37
2019-05-22T01:03:42.808Z,80.30
2019-05-22T01:06:11.999Z,79.10
2019-05-22T01:08:41.519Z,82.92
2019-05-22T01:11:10.919Z,83.03
2019-05-22T01:13:38.154Z,82.85
2019-05-22T01:16:09.642Z,83.70
2019-05-22T01:18:38.198Z,79.87
2019-05-22T01:21:06.921Z,74.47
2019-05-22T01:23:36.129Z,67.60
2019-05-22T01:26:04.960Z,67.92
2019-05-22T01:28:33.614Z,70.80
2019-05-22T01:31:08.231Z,69.22
2019-05-22T01:33:41.968Z,63.78
2019-05-22T01:36:22.839Z,68.72
2019-05-22T01:38:52.504Z,67.30
2019-05-22T01:41:25.860Z,67.72
2019-05-22T01:43:55.015Z,71.82
2019-05-22T01:46:24.119Z,68.37
2019-05-22T01:48:55.735Z,71.55
2019-05-22T01:51:24.267Z,69.15
2019-05-22T01:53:52.981Z,70.72
2019-05-22T01:56:20.682Z,70.37
2019-05-22T01:58:49.244Z,67.75
2019-05-22T02:01:18.599Z,68.80
2019-05-22T02:03:46.882Z,75.72
2019-05-22T02:06:16.332Z,68.60
2019-05-22T02:08:51.243Z,76.65
2019-05-22T02:11:21.716Z,76.92
2019-05-22T02:13:58.416Z,82.02
2019-05-22T02:16:28.307Z,81.55
2019-05-22T02:18:56.091Z,82.35
2019-05-22T02:21:24.440Z,68.72
2019-05-22T02:23:51.953Z,72.05
2019-05-22T02:26:19.358Z,68.37
2019-05-22T02:28:48.110Z,67.12
2019-05-22T02:31:17.110Z,73.92
2019-05-22T02:34:05.994Z,73.50
2019-05-22T02:36:36.328Z,62.98
2019-05-22T02:39:09.761Z,69.32
2019-05-22T02:41:46.505Z,68.80
2019-05-22T02:44:14.325Z,67.08
2019-05-22T02:46:41.542Z,64.58
2019-05-22T02:49:11.074Z,63.33
2019-05-22T02:51:39.397Z,57.62
2019-05-22T02:54:08.705Z,60.03
2019-05-22T02:56:36.281Z,60.00
2019-05-22T02:59:08.279Z,65.72
2019-05-22T03:01:36.541Z,62.50
2019-05-22T03:04:04.577Z,60.98
2019-05-22T03:06:34.267Z,60.08
2019-05-22T03:09:22.995Z,59.60
2019-05-22T03:11:54.680Z,58.85
2019-05-22T03:14:24.137Z,62.15
2019-05-22T03:16:55.619Z,65.83
2019-05-22T03:19:43.160Z,67.08
2019-05-22T03:22:23.541Z,65.03
2019-05-22T03:24:54.168Z,64.55
2019-05-22T03:27:36.731Z,66.47
2019-05-22T03:30:06.598Z,65.25
2019-05-22T03:32:34.626Z,64.97
2019-05-22T03:35:03.122Z,61.60
2019-05-22T03:37:30.742Z,57.83
2019-05-22T03:39:58.176Z,65.22
2019-05-22T03:42:26.534Z,63.25
2019-05-22T03:44:55.055Z,60.15
2019-05-22T03:47:23.106Z,63.00
2019-05-22T03:49:52.354Z,59.55
2019-05-22T03:52:19.788Z,56.40
2019-05-22T03:54:47.372Z,58.90
2019-05-22T03:57:15.113Z,58.20
2019-05-22T03:59:42.738Z,60.60
2019-05-22T04:02:09.984Z,63.75
2019-05-22T04:04:39.761Z,59.58
2019-05-22T04:07:11.857Z,59.08
2019-05-22T04:09:39.795Z,52.60
2019-05-22T04:12:08.340Z,51.85
2019-05-22T04:14:37.069Z,49.25
2019-05-22T04:17:07.200Z,62.17
2019-05-22T04:19:48.482Z,51.75
2019-05-22T04:22:03.903Z,50.78
2019-05-22T04:24:31.802Z,49.50
2019-05-22T04:27:00.446Z,51.23
2019-05-22T04:29:27.918Z,50.78
2019-05-22T04:32:05.937Z,43.92
2019-05-22T04:34:33.600Z,44.13
2019-05-22T04:37:01.268Z,45.63
2019-05-22T04:39:31.192Z,49.33
2019-05-22T04:42:00.293Z,46.45
2019-05-22T04:44:27.638Z,43.75
2019-05-22T04:46:55.582Z,39.73
2019-05-22T04:49:23.411Z,42.08
2019-05-22T04:51:50.766Z,41.73
2019-05-22T04:54:18.043Z,42.23
2019-05-22T04:56:45.700Z,37.75
2019-05-22T04:59:13.693Z,37.28
2019-05-22T05:01:41.574Z,35.33
2019-05-22T05:04:08.815Z,41.25
2019-05-22T05:06:37.793Z,37.78
2019-05-22T05:09:08.520Z,37.20
2019-05-22T05:11:35.803Z,33.70
2019-05-22T05:14:03.364Z,35.08
2019-05-22T05:16:30.667Z,32.85
2019-05-22T05:18:58.405Z,32.63
2019-05-22T05:21:25.750Z,28.35
2019-05-22T05:23:53.524Z,32.83
2019-05-22T05:26:21.904Z,30.52
2019-05-22T05:28:49.342Z,30.72
2019-05-22T05:31:17.196Z,28.62
2019-05-22T05:34:03.254Z,27.30
2019-05-22T05:36:31.593Z,29.70
2019-05-22T05:38:59.465Z,30.15
2019-05-22T05:41:27.217Z,32.58
2019-05-22T05:43:55.932Z,30.37
2019-05-22T05:46:23.497Z,27.22
2019-05-22T05:48:51.573Z,27.22
2019-05-22T05:51:22.973Z,29.92
2019-05-22T05:54:00.580Z,26.85
2019-05-22T05:56:31.174Z,26.23
2019-05-22T05:58:59.630Z,35.90
2019-05-22T06:01:33.689Z,28.57
2019-05-22T06:04:03.094Z,27.58
2019-05-22T06:07:12.847Z,28.62
2019-05-22T06:09:40.824Z,23.25
2019-05-22T06:12:10.975Z,24.05
2019-05-22T06:14:38.945Z,25.37
2019-05-22T06:17:43.739Z,26.42
2019-05-22T06:20:14.551Z,26.52
2019-05-22T06:22:44.468Z,26.40
2019-05-22T06:25:13.618Z,25.48
2019-05-22T06:27:55.164Z,25.02
2019-05-22T06:30:41.677Z,24.57
2019-05-22T06:33:35.444Z,31.23
2019-05-22T06:36:07.654Z,26.17
2019-05-22T06:39:00.115Z,27.35
2019-05-22T06:41:32.256Z,23.22
2019-05-22T06:44:39.165Z,29.05
2019-05-22T06:47:09.381Z,24.35
2019-05-22T06:49:38.718Z,24.80
2019-05-22T06:52:06.857Z,23.42
2019-05-22T06:54:34.428Z,25.85
2019-05-22T06:57:01.697Z,22.77
2019-05-22T06:59:29.055Z,22.15
2019-05-22T07:02:01.535Z,21.82
2019-05-22T07:06:54.925Z,21.20
2019-05-22T07:09:24.465Z,21.37
2019-05-22T07:11:52.219Z,19.32
2019-05-22T07:14:19.764Z,24.85
2019-05-22T07:16:47.407Z,24.02
2019-05-22T07:19:16.238Z,25.15
2019-05-22T07:21:43.655Z,22.37
2019-05-22T07:24:10.880Z,23.20
2019-05-22T07:26:38.569Z,25.50
2019-05-22T07:29:05.799Z,21.05
2019-05-22T07:31:33.366Z,23.60
2019-05-22T07:34:00.621Z,22.87
2019-05-22T07:36:31.194Z,19.25
2019-05-22T07:38:58.625Z,17.82
2019-05-22T07:41:26.172Z,19.45
2019-05-22T07:43:53.769Z,22.00
2019-05-22T07:46:21.583Z,18.55
2019-05-22T07:48:48.833Z,16.82
2019-05-22T07:51:17.398Z,17.98
2019-05-22T07:53:45.124Z,18.62
2019-05-22T07:56:13.965Z,20.05
2019-05-22T07:58:42.412Z,19.30
2019-05-22T08:01:10.232Z,20.57
2019-05-22T08:03:38.978Z,21.90
2019-05-22T08:06:07.486Z,23.70
2019-05-22T08:08:35.355Z,21.20
2019-05-22T08:11:04.018Z,21.48
2019-05-22T08:13:31.589Z,18.67
2019-05-22T08:15:59.189Z,21.50
2019-05-22T08:18:29.652Z,20.02
2019-05-22T08:20:57.849Z,21.15
2019-05-22T08:23:26.177Z,17.52
2019-05-22T08:25:54.813Z,18.77
2019-05-22T08:28:22.871Z,17.77
2019-05-22T08:30:50.749Z,17.00
2019-05-22T08:33:18.887Z,17.00
2019-05-22T08:35:46.270Z,20.37
2019-05-22T08:38:14.141Z,18.80
2019-05-22T08:40:41.871Z,17.95
2019-05-22T08:43:10.079Z,20.35
2019-05-22T08:45:38.228Z,18.55
2019-05-22T08:48:06.572Z,20.50
2019-05-22T08:50:36.145Z,16.17
2019-05-22T08:53:04.299Z,19.77
2019-05-22T08:55:33.870Z,20.60
2019-05-22T08:58:01.536Z,15.55
2019-05-22T09:00:30.372Z,15.85
2019-05-22T09:02:57.849Z,17.45
2019-05-22T09:05:26.895Z,18.67
2019-05-22T09:07:54.144Z,17.02
2019-05-22T09:10:25.750Z,17.07
2019-05-22T09:12:51.428Z,16.27
2019-05-22T09:15:19.297Z,17.50
2019-05-22T09:17:47.024Z,17.23
2019-05-22T09:20:14.482Z,21.35
2019-05-22T09:22:43.787Z,17.12
2019-05-22T09:25:13.285Z,16.45
2019-05-22T09:27:41.291Z,16.35
2019-05-22T09:30:09.145Z,16.65
2019-05-22T09:32:36.480Z,15.38
2019-05-22T09:35:04.192Z,17.42
2019-05-22T09:37:31.599Z,19.65
2019-05-22T09:39:58.845Z,18.80
2019-05-22T09:42:27.416Z,16.00
2019-05-22T09:44:54.709Z,16.65
2019-05-22T09:47:23.733Z,18.35
2019-05-22T09:49:50.981Z,16.12
2019-05-22T09:52:18.261Z,17.75
2019-05-22T09:54:46.400Z,19.02
2019-05-22T09:57:13.944Z,13.50
2019-05-22T09:59:41.279Z,13.65
2019-05-22T10:02:09.164Z,14.78
2019-05-22T10:04:36.499Z,14.60
2019-05-22T10:07:03.780Z,15.53
2019-05-22T10:09:31.045Z,17.35
2019-05-22T10:11:58.306Z,16.52
2019-05-22T10:14:25.777Z,20.80
2019-05-22T10:16:53.144Z,16.07
2019-05-22T10:19:20.616Z,14.75
2019-05-22T10:21:48.407Z,14.07
2019-05-22T10:24:15.856Z,11.57
2019-05-22T10:26:43.422Z,11.35
2019-05-22T10:29:11.387Z,10.45
2019-05-22T10:31:39.139Z,11.22
2019-05-22T10:34:06.924Z,13.90
2019-05-22T10:36:34.360Z,10.03
2019-05-22T10:39:02.351Z,8.20
2019-05-22T10:41:29.964Z,13.22
2019-05-22T10:43:57.353Z,10.00
2019-05-22T10:46:24.577Z,9.50
2019-05-22T10:48:52.665Z,9.88
2019-05-22T10:51:19.932Z,11.33
2019-05-22T10:53:47.487Z,10.78
2019-05-22T10:56:14.858Z,7.60
2019-05-22T10:58:42.114Z,10.75
2019-05-22T11:01:09.741Z,11.10
2019-05-22T11:03:37.408Z,10.93
2019-05-22T11:06:07.648Z,9.15
2019-05-22T11:08:34.661Z,8.73
2019-05-22T11:11:02.181Z,6.50
2019-05-22T11:13:29.539Z,6.08
2019-05-22T11:15:58.118Z,6.72
2019-05-22T11:18:26.183Z,7.55
2019-05-22T11:20:53.792Z,6.87
2019-05-22T11:23:21.457Z,6.92
2019-05-22T11:25:49.328Z,7.67
2019-05-22T11:28:16.699Z,6.17
2019-05-22T11:30:44.138Z,8.00
2019-05-22T11:33:11.615Z,4.75
2019-05-22T11:35:39.384Z,4.08
2019-05-22T11:38:07.478Z,3.52
2019-05-22T11:40:35.046Z,4.08
2019-05-22T11:43:02.796Z,5.03
2019-05-22T11:45:30.128Z,3.45
2019-05-22T11:47:57.782Z,3.80
2019-05-22T11:50:27.221Z,3.90
2019-05-22T11:52:54.572Z,4.95
2019-05-22T11:55:22.233Z,3.83
2019-05-22T11:57:51.004Z,4.30
2019-05-22T12:00:20.160Z,3.50
2019-05-22T12:02:47.805Z,3.65
2019-05-22T12:05:16.087Z,4.00
2019-05-22T12:07:44.759Z,3.50
2019-05-22T12:10:13.844Z,7.92
2019-05-22T12:12:41.170Z,4.20
2019-05-22T12:15:09.789Z,4.62
2019-05-22T12:17:39.054Z,5.90
2019-05-22T12:20:09.042Z,4.33
2019-05-22T12:22:36.565Z,4.00
2019-05-22T12:25:04.067Z,4.30
2019-05-22T12:27:31.563Z,3.72
2019-05-22T12:29:58.996Z,3.22
2019-05-22T12:32:28.443Z,3.87
2019-05-22T12:34:55.699Z,3.37
2019-05-22T12:37:24.121Z,7.75
2019-05-22T12:39:51.380Z,4.55
2019-05-22T12:42:18.880Z,3.20
2019-05-22T12:44:46.399Z,3.27
2019-05-22T12:47:14.420Z,4.35
2019-05-22T12:49:42.215Z,3.52
2019-05-22T12:52:10.424Z,3.02
2019-05-22T12:54:47.329Z,3.55
2019-05-22T12:57:07.549Z,3.17
2019-05-22T12:59:35.493Z,2.90
2019-05-22T13:02:03.043Z,3.85
2019-05-22T13:04:31.269Z,2.87
2019-05-22T13:06:59.896Z,5.83
2019-05-22T13:09:28.445Z,3.33
2019-05-22T13:11:56.493Z,3.22
2019-05-22T13:14:23.936Z,3.02
2019-05-22T13:16:51.538Z,3.17
2019-05-22T13:19:19.177Z,3.30
2019-05-22T13:21:47.241Z,3.58
2019-05-22T13:24:19.472Z,3.62
2019-05-22T13:26:48.999Z,2.95
2019-05-22T13:29:18.013Z,3.08
2019-05-22T13:31:47.800Z,3.08
2019-05-22T13:34:16.145Z,3.13
2019-05-22T13:36:45.370Z,3.83
2019-05-22T13:39:13.893Z,2.40
2019-05-22T13:41:41.321Z,3.60
2019-05-22T13:44:09.594Z,3.22
2019-05-22T13:46:37.365Z,4.90
2019-05-22T13:49:05.687Z,4.30
2019-05-22T13:51:33.436Z,3.33
2019-05-22T13:54:01.292Z,4.15
2019-05-22T13:56:28.703Z,3.98
2019-05-22T13:58:56.095Z,3.52
2019-05-22T14:01:24.557Z,3.17
2019-05-22T14:03:53.075Z,5.50
2019-05-22T14:06:20.447Z,3.75
2019-05-22T14:08:48.048Z,2.77
2019-05-22T14:11:16.365Z,3.08
2019-05-22T14:13:44.121Z,3.37
2019-05-22T14:16:11.486Z,3.15
2019-05-22T14:18:38.809Z,2.60
2019-05-22T14:21:06.036Z,3.75
2019-05-22T14:23:33.351Z,2.75
2019-05-22T14:26:00.685Z,3.67
2019-05-22T14:28:28.014Z,2.92
2019-05-22T14:30:55.745Z,2.98
2019-05-22T14:33:23.676Z,2.65
2019-05-22T14:35:52.754Z,2.90
2019-05-22T14:38:20.356Z,3.15
2019-05-22T14:40:47.618Z,2.67
2019-05-22T14:43:15.027Z,2.60
2019-05-22T14:45:42.702Z,3.10
2019-05-22T14:48:10.823Z,2.35
2019-05-22T14:50:38.211Z,2.87
2019-05-22T14:53:05.624Z,3.27
2019-05-22T14:55:36.200Z,2.87
2019-05-22T14:58:04.697Z,2.47
2019-05-22T15:00:32.944Z,2.42
2019-05-22T15:03:00.988Z,2.20
2019-05-22T15:05:28.744Z,2.42
2019-05-22T15:07:56.343Z,3.83
2019-05-22T15:10:25.965Z,2.77
2019-05-22T15:12:53.251Z,2.60
2019-05-22T15:15:22.020Z,4.28
2019-05-22T15:17:49.433Z,2.60
2019-05-22T15:20:20.745Z,4.03
2019-05-22T15:22:47.976Z,3.00
2019-05-22T15:25:15.509Z,2.90
2019-05-22T15:27:43.915Z,2.60
2019-05-22T15:30:12.185Z,3.27
2019-05-22T15:32:39.543Z,2.62
2019-05-22T15:35:08.865Z,2.60
2019-05-22T15:37:37.104Z,2.35
2019-05-22T15:40:05.037Z,3.05
2019-05-22T15:42:38.039Z,3.05
2019-05-22T15:45:09.000Z,2.70
2019-05-22T15:47:53.616Z,3.22
2019-05-22T15:50:08.828Z,2.45
2019-05-22T15:52:37.315Z,2.83
2019-05-22T15:55:06.151Z,2.80
2019-05-22T15:57:35.880Z,2.80
2019-05-22T16:00:06.927Z,2.65
2019-05-22T16:02:34.304Z,3.05
2019-05-22T16:05:02.022Z,5.50
2019-05-22T16:07:29.920Z,2.98
2019-05-22T16:09:57.456Z,3.00
2019-05-22T16:12:25.728Z,2.65
2019-05-22T16:14:53.060Z,2.90
2019-05-22T16:17:20.740Z,2.50
2019-05-22T16:19:48.059Z,3.30
2019-05-22T16:22:15.767Z,4.55
2019-05-22T16:24:43.064Z,4.80
2019-05-22T16:27:13.616Z,3.67
2019-05-22T16:29:42.425Z,3.10
2019-05-22T16:32:11.446Z,3.15
2019-05-22T16:34:39.994Z,3.30
2019-05-22T16:37:08.508Z,4.75
2019-05-22T16:39:37.988Z,4.80
2019-05-22T16:42:06.070Z,3.67
2019-05-22T16:44:34.736Z,3.27
2019-05-22T16:47:03.371Z,2.90
2019-05-22T16:49:31.256Z,3.87
2019-05-22T16:51:59.281Z,3.75
2019-05-22T16:54:27.331Z,3.30
2019-05-22T16:56:54.484Z,3.08
2019-05-22T16:59:22.317Z,3.27
2019-05-22T17:02:00.068Z,4.33
2019-05-22T17:04:19.029Z,2.72
2019-05-22T17:06:46.898Z,3.52
2019-05-22T17:09:15.872Z,4.50
2019-05-22T17:11:43.581Z,4.17
2019-05-22T17:14:11.811Z,4.15
2019-05-22T17:16:40.556Z,3.30
2019-05-22T17:19:25.636Z,4.03
2019-05-22T17:21:37.737Z,4.92
2019-05-22T17:24:09.670Z,6.35
2019-05-22T17:26:37.329Z,3.62
2019-05-22T17:29:05.004Z,5.70
2019-05-22T17:31:32.547Z,4.80
2019-05-22T17:33:59.804Z,4.55
2019-05-22T17:36:28.268Z,6.80
2019-05-22T17:38:55.840Z,4.05
2019-05-22T17:41:23.947Z,6.30
2019-05-22T17:43:53.248Z,6.00
2019-05-22T17:46:20.856Z,4.53
2019-05-22T17:48:48.408Z,4.80
2019-05-22T17:51:15.669Z,5.90
2019-05-22T17:53:43.970Z,6.95
2019-05-22T17:56:11.414Z,4.92
2019-05-22T17:58:38.992Z,6.83
2019-05-22T18:01:07.813Z,8.68
2019-05-22T18:03:35.060Z,7.42
2019-05-22T18:06:03.576Z,5.83
2019-05-22T18:08:30.838Z,4.78
2019-05-22T18:10:58.186Z,7.08
2019-05-22T18:13:25.654Z,7.10
2019-05-22T18:15:52.892Z,5.80
2019-05-22T18:18:20.164Z,7.22
2019-05-22T18:20:47.933Z,7.58
2019-05-22T18:23:15.789Z,5.83
2019-05-22T18:25:44.017Z,7.60
2019-05-22T18:28:11.708Z,5.08
2019-05-22T18:30:41.018Z,5.97
2019-05-22T18:33:08.686Z,7.03
2019-05-22T18:35:36.046Z,5.80
2019-05-22T18:38:04.878Z,8.65
2019-05-22T18:40:33.329Z,5.12
2019-05-22T18:43:00.940Z,6.03
2019-05-22T18:45:29.305Z,8.75
2019-05-22T18:47:56.693Z,6.58
2019-05-22T18:50:24.732Z,5.67
2019-05-22T18:52:51.994Z,6.78
2019-05-22T18:55:19.275Z,8.65
2019-05-22T18:57:46.677Z,8.65
2019-05-22T19:00:16.830Z,7.70
2019-05-22T19:02:44.166Z,7.72
2019-05-22T19:05:11.757Z,7.65
2019-05-22T19:07:39.217Z,6.50
2019-05-22T19:10:06.894Z,7.92
2019-05-22T19:12:34.448Z,7.62
2019-05-22T19:15:01.727Z,7.83
2019-05-22T19:17:29.132Z,6.40
2019-05-22T19:19:56.520Z,7.37
2019-05-22T19:22:24.399Z,9.68
2019-05-22T19:24:51.623Z,9.48
2019-05-22T19:27:18.738Z,8.95
2019-05-22T19:29:46.273Z,10.85
2019-05-22T19:32:13.642Z,9.58
2019-05-22T19:34:40.830Z,9.43
2019-05-22T19:37:07.947Z,7.08
2019-05-22T19:39:36.731Z,7.97
2019-05-22T19:42:05.735Z,9.53
2019-05-22T19:44:33.631Z,8.58
2019-05-22T19:47:00.929Z,7.03
2019-05-22T19:49:28.735Z,10.68
2019-05-22T19:51:56.224Z,9.50
2019-05-22T19:54:23.532Z,10.18
2019-05-22T19:56:51.213Z,9.58
2019-05-22T19:59:19.321Z,11.35
2019-05-22T20:01:47.475Z,12.23
2019-05-22T20:04:15.032Z,10.30
2019-05-22T20:06:42.780Z,10.53
2019-05-22T20:09:11.143Z,10.93
2019-05-22T20:11:39.204Z,11.85
2019-05-22T20:14:07.595Z,11.73
2019-05-22T20:16:35.079Z,13.62
2019-05-22T20:19:02.361Z,9.88
2019-05-22T20:21:30.305Z,8.95
2019-05-22T20:23:57.557Z,11.95
2019-05-22T20:26:25.649Z,11.12
2019-05-22T20:28:53.263Z,10.13
2019-05-22T20:31:21.244Z,13.32
2019-05-22T20:33:48.701Z,11.75
2019-05-22T20:36:16.288Z,10.03
2019-05-22T20:38:43.872Z,9.98
2019-05-22T20:41:12.151Z,8.63
2019-05-22T20:43:40.069Z,9.95
2019-05-22T20:46:07.411Z,11.57
2019-05-22T20:48:34.831Z,9.33
2019-05-22T20:51:03.890Z,12.63
2019-05-22T20:53:32.573Z,11.03
2019-05-22T20:56:00.306Z,10.32
2019-05-22T20:58:29.848Z,10.70
2019-05-22T21:00:59.121Z,11.90
2019-05-22T21:03:26.899Z,11.30
2019-05-22T21:05:54.199Z,11.83
2019-05-22T21:08:24.903Z,12.28
2019-05-22T21:10:53.581Z,10.55
2019-05-22T21:13:20.866Z,9.88
2019-05-22T21:15:49.918Z,11.05
2019-05-22T21:18:19.443Z,16.20
2019-05-22T21:20:54.772Z,12.82
2019-05-22T21:23:18.785Z,13.95
2019-05-22T21:25:47.198Z,14.33
2019-05-22T21:28:14.640Z,18.40
2019-05-22T21:30:42.874Z,11.78
2019-05-22T21:33:10.513Z,13.50
2019-05-22T21:35:38.800Z,12.15
2019-05-22T21:38:06.357Z,13.75
2019-05-22T21:40:33.604Z,13.58
2019-05-22T21:43:01.306Z,10.10
2019-05-22T21:45:29.336Z,8.83
2019-05-22T21:47:58.012Z,11.48
2019-05-22T21:50:25.371Z,15.35
2019-05-22T21:52:52.913Z,11.97
2019-05-22T21:55:21.361Z,13.50
2019-05-22T21:57:49.184Z,13.85
2019-05-22T22:00:26.930Z,13.13
2019-05-22T22:02:55.353Z,15.00
2019-05-22T22:05:22.888Z,12.28
2019-05-22T22:07:50.839Z,15.98
2019-05-22T22:10:19.628Z,16.45
2019-05-22T22:12:47.478Z,14.23
2019-05-22T22:15:14.751Z,14.78
2019-05-22T22:17:42.690Z,14.03
2019-05-22T22:20:10.876Z,13.88
2019-05-22T22:22:38.457Z,11.63
2019-05-22T22:25:07.365Z,12.23
2019-05-22T22:27:35.307Z,17.17
2019-05-22T22:30:06.548Z,15.43
2019-05-22T22:32:34.524Z,13.70
2019-05-22T22:35:01.893Z,12.35
2019-05-22T22:37:30.495Z,14.30
2019-05-22T22:39:59.722Z,16.97
2019-05-22T22:42:31.016Z,15.80
2019-05-22T22:44:59.279Z,12.37
2019-05-22T22:47:33.259Z,13.68
2019-05-22T22:50:01.917Z,15.63
2019-05-22T22:52:29.223Z,13.03
2019-05-22T22:54:57.894Z,13.80
2019-05-22T22:57:25.390Z,12.82
2019-05-22T22:59:53.045Z,14.25
2019-05-22T23:02:24.793Z,15.10
2019-05-22T23:04:52.852Z,13.08
2019-05-22T23:07:21.440Z,15.40
2019-05-22T23:09:48.987Z,15.75
2019-05-22T23:12:19.436Z,17.40
2019-05-22T23:14:53.333Z,13.30
2019-05-22T23:17:23.323Z,13.85
2019-05-22T23:19:50.919Z,10.88
2019-05-22T23:22:26.673Z,13.38
2019-05-22T23:24:56.079Z,12.10
2019-05-22T23:27:24.555Z,13.43
2019-05-22T23:29:51.812Z,13.98
2019-05-22T23:32:20.683Z,12.63
2019-05-22T23:34:48.354Z,12.53
2019-05-22T23:37:16.898Z,11.40
2019-05-22T23:39:45.667Z,16.37
2019-05-22T23:42:21.725Z,22.50
2019-05-22T23:44:53.222Z,14.20
2019-05-22T23:47:21.383Z,14.10
2019-05-22T23:49:49.861Z,13.58
2019-05-22T23:52:17.237Z,13.40
2019-05-22T23:54:45.176Z,14.70
2019-05-22T23:57:13.884Z,15.75
2019-05-22T23:59:43.935Z,14.15
